aviador You're here:

USSS Decoded Metar

SVERDLOVSK in RUSSIA
Report Time2017-08-20 13:00:00
UTC Time2017-08-20 13:39:57
Flight Rules vfr VFR
Wind220° at 8 kt
W.Decomp.*RWY 26: 4.7 kt HW 6.5 kt LCW
W.Rank220° ranks 21
Current wind is above 220° avg. (7.6)
Visibility9999 m
Phenomena:N/A
Clouds:Scattered CB 044 Hf
Expected CloudBase > 2,400 ft AGL from Temp-Dew spread
CeilingNone
Temp20°C (ISA +7)
Dew Point14°C (69% RH)
AAT18.4°C
QNH1022 hPa
Density Alt1,440 ft
Elevation764 ft
Report Wrong Elevation
Raw Report
USSS 201300Z 22004MPS 9999 SCT044CB 20/14 Q1022 R26R/010060 NOSIG
RMK QFE745/0994=

Extra information for USSS:More info

Metar Taf Metar & Taf Last 4 Metars F.Rules Stats Wind Profile Meteogram Temp Stats Airport Information Weather charts Add Link Nearby VenuesMetar ALERT Operation Metar Decoded Social comments